Red Mountain, California
Current Conditions -  °F | °C
As of 4:56 PM on Monday 24 Nov 2014 (Local Time) from KNID Reporting Station
Broken Clouds Broken Clouds  
Wind Chill: 57°   Ceiling: 28000
Heat Index: 57°   Visibility: 10mi
Dew Point: 10°   Wind: 6mph
Humidity: 15%   Direction: 110°ESE
Pressure: 30.34"   Gusts: NA
Location:  35.36°N, 117.62°W
Report Text: KNID 250056Z 11005KT 10SM BKN280 14/M12 A3034 RMK AO2 SLP280 T01391122 $
Loading
Personal Weather Stations






























Interactive Weather Map New forecast layout! Learn more

10-Day Weather Forecast

Advertisements
Track Severe Weather on mobile